Time;durP1;ratioP1;P1;durP2;ratioP2;P2;SDS_P1;SDS_P2;PMS_P1;PMS_P2;Temp;Humidity;BMP_temperature;BMP_pressure;BME280_temperature;BME280_humidity;BME280_pressure;Samples;Min_cycle;Max_cycle;Signal;HPM_P1;HPM_P2
2022/06/18 00:01:08;;;;;;;5.32;2.08;;;;;;;18.06;nan;101045.94;10313755;28;20061;-74
2022/06/18 00:06:10;;;;;;;5.07;2.20;;;;;;;17.95;nan;101006.31;10315642;28;20043;-73
2022/06/18 00:16:32;;;;;;;7.57;2.20;;;;;;;17.83;nan;100960.47;10314049;28;20046;-72
2022/06/18 00:21:34;;;;;;;7.45;1.83;;;;;;;17.75;nan;100933.19;10312368;28;20050;-74
2022/06/18 00:26:35;;;;;;;12.75;1.98;;;;;;;17.68;nan;100910.31;10312814;28;20418;-73
2022/06/18 00:31:38;;;;;;;4.18;1.80;;;;;;;17.62;nan;100878.59;10312745;28;20057;-73
2022/06/18 00:36:41;;;;;;;5.40;2.20;;;;;;;17.54;nan;100860.16;10313256;28;20042;-74
2022/06/18 00:41:46;;;;;;;7.18;2.00;;;;;;;17.43;nan;100820.56;10312125;28;20101;-73
2022/06/18 00:47:07;;;;;;;5.25;2.00;;;;;;;17.30;nan;100766.88;10313246;28;20073;-73
2022/06/18 00:52:25;;;;;;;6.35;2.30;;;;;;;17.25;nan;100750.19;10278203;28;20042;-74
2022/06/18 00:57:32;;;;;;;5.05;2.17;;;;;;;17.24;nan;100756.34;10299795;28;20047;-73
2022/06/18 01:02:39;;;;;;;7.38;2.25;;;;;;;17.19;nan;100731.72;10323652;28;20053;-73
2022/06/18 01:07:41;;;;;;;4.68;2.40;;;;;;;17.15;nan;100724.72;10321750;28;20101;-73
2022/06/18 01:12:43;;;;;;;4.07;2.10;;;;;;;17.17;nan;100737.94;10301055;28;20544;-73
2022/06/18 01:17:47;;;;;;;6.25;2.50;;;;;;;17.12;nan;100717.69;10308286;28;20050;-72
2022/06/18 01:23:28;;;;;;;5.25;2.40;;;;;;;17.04;nan;100685.16;10310446;28;20034;-73
2022/06/18 01:28:30;;;;;;;7.18;2.58;;;;;;;16.98;nan;100669.34;10302190;28;20077;-73
2022/06/18 01:33:33;;;;;;;7.18;2.28;;;;;;;16.90;nan;100639.47;10324851;28;20050;-73
2022/06/18 01:38:40;;;;;;;5.78;2.28;;;;;;;16.86;nan;100633.31;10314106;28;20055;-73
2022/06/18 01:43:43;;;;;;;5.65;2.40;;;;;;;16.69;nan;100567.38;10318596;28;20057;-74
2022/06/18 01:48:47;;;;;;;6.20;2.10;;;;;;;16.60;nan;100535.78;10300521;28;20589;-73
2022/06/18 01:53:55;;;;;;;6.20;2.20;;;;;;;16.50;nan;100503.31;10316913;28;20046;-73
2022/06/18 01:59:04;;;;;;;4.47;2.22;;;;;;;16.47;nan;100492.78;10300532;28;20042;-74
2022/06/18 02:04:16;;;;;;;6.03;2.13;;;;;;;16.37;nan;100454.13;10298568;28;20132;-73
2022/06/18 02:09:48;;;;;;;6.03;2.50;;;;;;;16.27;nan;100416.38;10317227;28;20139;-73
2022/06/18 02:14:55;;;;;;;5.73;2.90;;;;;;;16.29;nan;100430.47;10332117;28;20168;-73
2022/06/18 02:20:09;;;;;;;6.53;3.00;;;;;;;16.20;nan;100402.38;10316352;28;20185;-73
2022/06/18 02:25:13;;;;;;;7.88;2.63;;;;;;;16.15;nan;100376.91;10311378;28;20679;-72
2022/06/18 02:30:18;;;;;;;7.57;2.65;;;;;;;16.16;nan;100389.22;10312820;28;20201;-73
2022/06/18 02:35:22;;;;;;;7.10;3.80;;;;;;;16.16;nan;100392.75;10299572;28;20446;-72
2022/06/18 02:40:26;;;;;;;7.38;2.80;;;;;;;16.38;nan;100487.59;10315773;28;20043;-73
2022/06/18 02:45:31;;;;;;;7.65;3.22;;;;;;;16.36;nan;100484.09;10316327;28;20129;-72
2022/06/18 02:50:36;;;;;;;6.00;2.45;;;;;;;16.42;nan;100513.06;10315274;28;20053;-73
2022/06/18 02:55:47;;;;;;;8.70;3.00;;;;;;;16.32;nan;100477.97;10316162;28;20054;-73
2022/06/18 03:00:56;;;;;;;7.85;3.33;;;;;;;16.43;nan;100522.75;10316372;28;20043;-73
2022/06/18 03:05:59;;;;;;;8.68;3.38;;;;;;;16.52;nan;100559.66;10315775;28;20058;-73
2022/06/18 03:16:23;;;;;;;6.75;3.30;;;;;;;16.63;nan;100608.88;10315562;28;20159;-73
2022/06/18 03:21:46;;;;;;;6.32;3.47;;;;;;;16.70;nan;100650.22;10314070;28;20180;-73
2022/06/18 03:26:49;;;;;;;7.75;3.40;;;;;;;16.70;nan;100658.16;10320564;28;20042;-73
2022/06/18 03:31:50;;;;;;;9.50;3.47;;;;;;;16.70;nan;100659.03;10296614;28;20430;-74
2022/06/18 03:36:54;;;;;;;8.13;3.42;;;;;;;16.74;nan;100687.19;10297359;28;20042;-73
2022/06/18 03:41:58;;;;;;;7.28;3.53;;;;;;;16.77;nan;100708.31;10296079;28;20054;-74
2022/06/18 03:47:02;;;;;;;7.00;3.53;;;;;;;16.85;nan;100739.97;10297450;28;20080;-73
2022/06/18 03:52:11;;;;;;;8.37;3.83;;;;;;;16.91;nan;100763.75;10296356;28;20145;-73
2022/06/18 03:57:18;;;;;;;6.47;3.45;;;;;;;17.04;nan;100821.81;10311026;28;20144;-73
2022/06/18 04:02:21;;;;;;;8.07;4.03;;;;;;;17.09;nan;100841.19;10296103;28;20050;-73
2022/06/18 04:07:24;;;;;;;7.88;4.07;;;;;;;17.19;nan;100884.28;10297013;28;20540;-73
2022/06/18 04:12:56;;;;;;;7.85;3.97;;;;;;;17.25;nan;100916.00;10293142;28;20057;-73
2022/06/18 04:18:21;;;;;;;11.55;4.13;;;;;;;17.41;nan;100997.03;10276558;28;20050;-73
2022/06/18 04:23:24;;;;;;;9.63;3.88;;;;;;;17.56;nan;101050.75;10295536;28;20050;-74
2022/06/18 04:28:27;;;;;;;7.60;4.15;;;;;;;17.78;nan;101152.09;10302517;28;20046;-73
2022/06/18 04:33:35;;;;;;;12.33;4.50;;;;;;;17.98;nan;101236.75;10303479;28;20074;-72
2022/06/18 04:39:11;;;;;;;11.68;4.72;;;;;;;18.09;nan;101293.22;10285875;28;20595;-73
2022/06/18 04:44:41;;;;;;;11.23;4.57;;;;;;;18.16;nan;101326.72;10308593;28;20135;-72
2022/06/18 04:50:17;;;;;;;10.18;4.70;;;;;;;18.27;nan;101377.06;10303670;28;20054;-74
2022/06/18 04:55:20;;;;;;;7.78;4.40;;;;;;;18.41;nan;101435.31;10321407;28;20177;-73
2022/06/18 05:00:23;;;;;;;9.45;4.80;;;;;;;18.52;nan;101482.97;10303873;28;20043;-73
2022/06/18 05:05:45;;;;;;;9.60;5.13;;;;;;;18.68;nan;101552.75;10320818;28;20053;-73
2022/06/18 05:11:06;;;;;;;11.93;5.28;;;;;;;18.84;nan;101634.03;10320144;28;20553;-73
2022/06/18 05:16:28;;;;;;;11.55;5.70;;;;;;;19.00;nan;101708.31;10314472;28;20034;-73
2022/06/18 05:21:30;;;;;;;13.63;5.53;;;;;;;19.14;nan;101756.03;10319327;28;20161;-72
2022/06/18 05:26:32;;;;;;;12.15;5.60;;;;;;;19.27;nan;101824.16;10302246;28;20137;-72
2022/06/18 05:31:34;;;;;;;13.23;5.32;;;;;;;19.46;nan;101903.78;10301788;28;20419;-73
2022/06/18 05:36:37;;;;;;;11.00;5.95;;;;;;;19.74;nan;102026.81;10319179;28;20615;-73
2022/06/18 05:41:39;;;;;;;13.13;6.38;;;;;;;20.13;nan;102189.84;10300975;28;20073;-73
2022/06/18 05:46:41;;;;;;;12.95;6.38;;;;;;;20.45;nan;102337.94;10301274;28;20128;-71
2022/06/18 05:51:43;;;;;;;16.95;6.43;;;;;;;20.63;nan;102417.75;10316498;28;20039;-73
2022/06/18 05:56:45;;;;;;;10.63;5.95;;;;;;;20.88;nan;102521.63;10329197;28;20120;-73
2022/06/18 06:02:09;;;;;;;17.85;6.57;;;;;;;20.89;nan;102536.72;10318659;28;20050;-72
2022/06/18 06:07:15;;;;;;;11.63;7.15;;;;;;;20.91;nan;102542.06;10301546;28;20046;-74
2022/06/18 06:12:18;;;;;;;16.25;7.65;;;;;;;20.85;nan;102524.28;10301155;28;20070;-73
2022/06/18 06:17:21;;;;;;;15.75;6.90;;;;;;;21.09;nan;102627.31;10319235;28;20053;-76
2022/06/18 06:22:23;;;;;;;15.10;8.52;;;;;;;21.42;nan;102771.25;10300104;28;20143;-72
2022/06/18 06:27:25;;;;;;;15.75;7.45;;;;;;;21.62;nan;102862.88;10317950;28;20046;-70
2022/06/18 06:32:26;;;;;;;15.45;7.82;;;;;;;21.83;nan;102946.50;10317054;28;20528;-72
2022/06/18 06:37:28;;;;;;;13.18;7.53;;;;;;;22.10;nan;103072.84;10323135;28;20741;-72
2022/06/18 06:42:30;;;;;;;15.70;7.13;;;;;;;22.29;nan;103149.44;10316878;28;20054;-70
2022/06/18 06:47:31;;;;;;;11.80;7.43;;;;;;;22.50;nan;103242.13;10299827;28;20046;-71
2022/06/18 06:52:34;;;;;;;15.77;7.63;;;;;;;22.62;nan;103297.38;10316531;28;20057;-72
2022/06/18 06:57:35;;;;;;;17.95;7.53;;;;;;;23.03;nan;103477.53;10316869;28;20070;-73
2022/06/18 07:02:38;;;;;;;17.73;6.93;;;;;;;23.28;nan;103591.81;10316297;28;20054;-72
2022/06/18 07:07:40;;;;;;;15.18;7.43;;;;;;;23.62;nan;103732.91;10316727;28;20042;-72
2022/06/18 07:12:42;;;;;;;16.75;6.55;;;;;;;23.91;nan;103860.72;10315214;28;20050;-72
2022/06/18 07:17:44;;;;;;;15.20;6.78;;;;;;;24.27;nan;104033.31;10316094;28;20196;-72
2022/06/18 07:22:45;;;;;;;13.43;6.50;;;;;;;24.58;nan;104152.41;10314662;28;20221;-73
2022/06/18 07:27:52;;;;;;;15.93;6.35;;;;;;;25.00;nan;104337.84;10315835;28;20046;-74
2022/06/18 07:32:54;;;;;;;13.68;5.88;;;;;;;25.47;nan;104545.88;10314206;28;20046;-72
2022/06/18 07:37:57;;;;;;;11.30;6.60;;;;;;;25.91;nan;104744.19;10316503;28;20086;-71
2022/06/18 07:43:01;;;;;;;17.83;5.85;;;;;;;26.05;nan;104804.44;10314572;28;20039;-73
2022/06/18 07:48:03;;;;;;;11.85;5.90;;;;;;;26.27;nan;104888.00;10315002;28;20453;-73
2022/06/18 07:53:06;;;;;;;13.95;5.20;;;;;;;26.59;nan;105028.28;10314538;28;20704;-72
2022/06/18 07:58:07;;;;;;;12.90;5.85;;;;;;;26.90;nan;105152.50;10314158;28;20161;-73
2022/06/18 08:03:12;;;;;;;16.20;6.30;;;;;;;26.22;nan;104836.91;10322252;28;20415;-72
2022/06/18 08:08:15;;;;;;;17.58;5.32;;;;;;;26.69;nan;105020.38;10326160;28;20125;-73
2022/06/18 08:13:37;;;;;;;12.32;5.18;;;;;;;27.31;nan;105305.66;10317723;28;20081;-72
2022/06/18 08:18:39;;;;;;;16.95;5.13;;;;;;;27.42;nan;105338.16;10322102;28;20065;-74
2022/06/18 08:23:41;;;;;;;18.17;6.30;;;;;;;27.19;nan;105215.72;10314924;28;20039;-74
2022/06/18 08:28:43;;;;;;;18.92;6.03;;;;;;;26.96;nan;105093.44;10315169;28;20050;-72
2022/06/18 08:33:44;;;;;;;17.17;5.53;;;;;;;27.17;nan;105169.94;10315045;28;20134;-72
2022/06/18 08:38:48;;;;;;;25.35;5.55;;;;;;;27.37;nan;105255.50;10321576;28;20057;-71
2022/06/18 08:44:02;;;;;;;15.60;4.65;;;;;;;27.33;nan;105231.25;10317813;28;20048;-72
2022/06/18 08:49:23;;;;;;;12.43;4.60;;;;;;;;;;10318093;28;20042;-70
2022/06/18 08:54:33;;;;;;;14.23;4.50;;;;;;;;;;10323558;28;20046;-70
2022/06/18 08:59:40;;;;;;;13.90;3.85;;;;;;;;;;10300056;28;20052;-71
2022/06/18 09:04:57;;;;;;;11.27;5.07;;;;;;;;;;10324272;28;20042;-71
2022/06/18 09:10:17;;;;;;;12.18;4.35;;;;;;;;;;10300469;28;20129;-70
2022/06/18 09:15:34;;;;;;;12.10;3.75;;;;;;;28.54;nan;105680.53;10312302;28;20061;-71
2022/06/18 09:20:43;;;;;;;14.05;3.85;;;;;;;28.76;nan;105756.47;10279018;28;1130151;-71
2022/06/18 09:25:49;;;;;;;8.32;3.60;;;;;;;28.97;nan;105843.19;10319794;28;20050;-71
2022/06/18 09:31:32;;;;;;;9.90;3.55;;;;;;;29.07;nan;105872.16;10316727;28;20042;-72
2022/06/18 09:36:43;;;;;;;12.63;3.78;;;;;;;29.30;nan;105943.69;10240747;28;20430;-71
2022/06/18 09:42:26;;;;;;;12.32;3.17;;;;;;;29.08;nan;105822.72;10319531;28;20057;-71
2022/06/18 09:47:47;;;;;;;8.02;2.33;;;;;;;29.22;nan;105866.16;10307175;28;20062;-71
2022/06/18 09:52:56;;;;;;;9.57;2.95;;;;;;;28.98;nan;105726.28;10318141;28;20389;-72
2022/06/18 09:58:01;;;;;;;9.07;2.60;;;;;;;29.36;nan;105896.09;10316478;28;20053;-69
2022/06/18 10:03:11;;;;;;;10.70;2.92;;;;;;;29.10;nan;105753.47;10317841;28;20050;-71
2022/06/18 10:08:14;;;;;;;12.98;2.90;;;;;;;29.55;nan;105942.34;10319020;28;20156;-71
2022/06/18 10:13:26;;;;;;;10.63;2.83;;;;;;;29.32;nan;105818.66;10317711;28;20053;-73
2022/06/18 10:18:38;;;;;;;18.15;2.88;;;;;;;29.49;nan;105863.94;10312864;28;20407;-70
2022/06/18 10:23:58;;;;;;;9.27;2.15;;;;;;;29.47;nan;105836.91;10316815;28;20035;-73
2022/06/18 10:29:50;;;;;;;7.20;2.40;;;;;;;29.19;nan;105687.94;10319043;28;20505;-72
2022/06/18 10:35:05;;;;;;;8.93;2.60;;;;;;;29.25;nan;105697.94;10189470;29;20045;-72
2022/06/18 10:40:32;;;;;;;9.55;2.33;;;;;;;29.73;nan;105902.13;10289599;28;20225;-72
2022/06/18 10:45:54;;;;;;;9.98;2.63;;;;;;;29.43;nan;105749.50;10318527;28;20076;-72
2022/06/18 10:50:58;;;;;;;7.75;2.47;;;;;;;29.71;nan;105849.88;10317049;28;20068;-73
2022/06/18 10:56:00;;;;;;;10.68;2.40;;;;;;;;;;10300682;28;20068;-71
2022/06/18 11:01:04;;;;;;;7.90;2.38;;;;;;;;;;10298961;28;20667;-70
2022/06/18 11:06:11;;;;;;;10.52;2.53;;;;;;;;;;10317557;28;20150;-72
2022/06/18 11:11:14;;;;;;;8.50;2.30;;;;;;;29.84;nan;105845.59;10316767;28;20129;-73
2022/06/18 11:16:28;;;;;;;9.60;2.80;;;;;;;29.62;nan;105725.50;10317230;28;20046;-74
2022/06/18 11:21:35;;;;;;;8.23;2.30;;;;;;;29.67;nan;105739.97;10316091;28;20109;-73
2022/06/18 11:26:43;;;;;;;8.10;2.40;;;;;;;30.40;nan;106060.97;10318889;28;20049;-73
2022/06/18 11:31:52;;;;;;;12.50;2.55;;;;;;;30.45;nan;106061.94;10323697;28;20054;-74
2022/06/18 11:36:57;;;;;;;44.92;4.35;;;;;;;30.51;nan;106077.34;10317327;28;20070;-73
2022/06/18 11:42:08;;;;;;;8.77;2.10;;;;;;;30.61;nan;106110.84;10323334;28;20049;-75
2022/06/18 11:47:36;;;;;;;9.18;2.17;;;;;;;29.88;nan;105755.59;10316624;28;20050;-73
2022/06/18 11:52:45;;;;;;;7.25;2.33;;;;;;;29.99;nan;105788.16;10318956;28;20544;-73
2022/06/18 11:58:22;;;;;;;6.03;2.30;;;;;;;30.32;nan;105922.88;10317665;28;20129;-74
2022/06/18 12:03:46;;;;;;;6.25;2.15;;;;;;;29.95;nan;105735.88;10315170;28;20134;-73
2022/06/18 12:08:48;;;;;;;9.68;1.95;;;;;;;29.94;nan;105711.53;10311254;28;20445;-74
2022/06/18 12:14:02;;;;;;;7.85;2.20;;;;;;;30.36;nan;105880.56;10315202;28;20141;-74
2022/06/18 12:19:34;;;;;;;4.18;1.73;;;;;;;30.04;nan;105726.97;10307663;28;20042;-75
2022/06/18 12:25:00;;;;;;;7.43;1.83;;;;;;;29.59;nan;105506.66;10315167;28;20052;-75
2022/06/18 12:30:09;;;;;;;9.77;2.20;;;;;;;29.26;nan;105348.84;10314087;28;20053;-75
2022/06/18 12:35:23;;;;;;;7.35;2.45;;;;;;;29.87;nan;105606.97;10319176;28;20045;-78
2022/06/18 12:40:59;;;;;;;7.55;1.77;;;;;;;29.57;nan;105462.53;10316568;28;20054;-74
2022/06/18 12:46:12;;;;;;;6.40;1.73;;;;;;;29.94;nan;105617.84;10271139;28;20051;-75
2022/06/18 12:51:14;;;;;;;10.77;3.45;;;;;;;30.05;nan;105650.38;10315453;28;20078;-74
2022/06/18 12:56:29;;;;;;;4.18;1.60;;;;;;;30.11;nan;105682.88;10325017;28;20042;-74
2022/06/18 13:02:05;;;;;;;6.90;1.85;;;;;;;29.42;nan;105350.78;10326285;28;20437;-74
2022/06/18 13:07:10;;;;;;;6.43;1.50;;;;;;;29.77;nan;105492.44;10326732;28;20038;-75
2022/06/18 13:12:34;;;;;;;5.72;1.48;;;;;;;29.07;nan;105169.63;10324674;28;20051;-75
2022/06/18 13:17:47;;;;;;;3.80;1.40;;;;;;;28.20;nan;104769.06;10320569;28;20050;-73
2022/06/18 14:46:14;;;;;;;3.70;0.83;;;;;;;26.01;nan;103805.56;10111309;29;20057;-74
2022/06/18 14:51:28;;;;;;;4.43;1.08;;;;;;;26.05;nan;103818.09;10079521;29;20501;-73
2022/06/18 14:56:46;;;;;;;4.78;1.20;;;;;;;25.62;nan;103630.22;10085684;29;20060;-73
2022/06/18 15:02:00;;;;;;;6.95;1.52;;;;;;;25.38;nan;103524.72;10074248;29;20052;-72
2022/06/18 15:07:07;;;;;;;21.85;13.45;;;;;;;25.66;nan;103640.03;10078712;29;20576;-74
2022/06/18 15:12:11;;;;;;;20.70;13.82;;;;;;;25.52;nan;103584.63;10064886;29;20044;-71
2022/06/18 15:23:07;;;;;;;6.85;2.20;;;;;;;25.28;nan;103477.34;10080998;29;20374;-76
2022/06/18 15:27:49;;;;;;;7.15;2.50;;;;;;;25.10;nan;103404.13;10083481;29;20056;-78
2022/06/18 15:32:57;;;;;;;7.55;2.58;;;;;;;25.37;nan;103523.84;10081166;29;20045;-81
2022/06/18 15:38:01;;;;;;;28.40;23.13;;;;;;;25.11;nan;103403.19;10077036;29;20516;-75
2022/06/18 15:43:18;;;;;;;8.02;1.77;;;;;;;25.63;nan;103640.94;10071703;29;20048;-80
2022/06/18 15:48:45;;;;;;;73.40;39.40;;;;;;;25.37;nan;103518.47;10066869;29;20077;-75
2022/06/18 15:53:53;;;;;;;283.52;229.75;;;;;;;25.33;nan;103494.34;10082001;29;20136;-77
2022/06/18 15:59:02;;;;;;;14.45;7.68;;;;;;;25.27;nan;103462.16;10081850;29;20049;-78
2022/06/18 16:04:05;;;;;;;103.38;74.93;;;;;;;25.45;nan;103541.72;10078399;29;20037;-75
2022/06/18 16:09:10;;;;;;;42.63;27.67;;;;;;;25.77;nan;103681.16;10080643;29;20057;-75
2022/06/18 16:14:11;;;;;;;10.27;3.72;;;;;;;25.79;nan;103681.16;10076750;29;20041;-75
2022/06/18 16:19:15;;;;;;;7.25;2.30;;;;;;;25.30;nan;103479.16;10078208;29;20521;-76
2022/06/18 16:24:37;;;;;;;6.88;1.20;;;;;;;25.21;nan;103425.53;10086358;29;20135;-74
2022/06/18 16:29:40;;;;;;;5.93;1.58;;;;;;;25.43;nan;103525.59;10084420;29;20049;-74
2022/06/18 16:34:45;;;;;;;9.88;2.60;;;;;;;25.66;nan;103619.47;10084228;29;20582;-75
2022/06/18 16:40:15;;;;;;;5.78;1.60;;;;;;;25.28;nan;103450.53;10086044;29;20049;-78
2022/06/18 16:45:16;;;;;;;4.82;1.40;;;;;;;25.31;nan;103463.97;10080892;29;20536;-75
2022/06/18 16:50:20;;;;;;;4.70;1.20;;;;;;;25.32;nan;103472.00;10082983;29;20096;-74
2022/06/18 16:55:29;;;;;;;8.45;2.42;;;;;;;25.13;nan;103377.31;10086193;29;20148;-74
2022/06/18 17:00:31;;;;;;;5.97;1.30;;;;;;;25.17;nan;103397.81;10077506;29;20560;-73
2022/06/18 17:05:39;;;;;;;7.43;1.77;;;;;;;24.93;nan;103288.03;10081271;29;20059;-73
2022/06/18 17:10:45;;;;;;;4.22;1.08;;;;;;;24.57;nan;103129.19;10076749;29;20056;-75
2022/06/18 17:15:47;;;;;;;9.15;2.00;;;;;;;24.39;nan;103053.38;10078182;29;20033;-76
2022/06/18 17:20:52;;;;;;;7.22;2.38;;;;;;;24.19;nan;102970.50;10082300;29;20568;-73
2022/06/18 17:31:20;;;;;;;15.80;6.38;;;;;;;23.87;nan;102823.53;10077357;29;20076;-74
2022/06/18 17:36:24;;;;;;;16.35;6.28;;;;;;;23.54;nan;102683.75;10076121;29;20041;-74
2022/06/18 17:41:26;;;;;;;8.80;2.10;;;;;;;23.25;nan;102572.59;10083518;29;20049;-72
2022/06/18 17:46:27;;;;;;;6.45;1.90;;;;;;;22.70;nan;102339.75;10073087;29;20045;-70
2022/06/18 17:51:30;;;;;;;15.10;2.20;;;;;;;22.38;nan;102210.16;10082911;29;20052;-70
2022/06/18 17:56:34;;;;;;;7.57;1.42;;;;;;;22.49;nan;102251.84;10093593;29;20052;-70
2022/06/18 18:01:40;;;;;;;8.90;1.63;;;;;;;22.38;nan;102209.25;10083134;29;20053;-70
2022/06/18 18:06:42;;;;;;;8.05;1.25;;;;;;;22.12;nan;102092.13;10082787;29;20053;-70
2022/06/18 18:11:44;;;;;;;15.52;1.60;;;;;;;21.75;nan;101945.84;10082468;29;20063;-69
2022/06/18 18:16:48;;;;;;;8.77;2.03;;;;;;;21.43;nan;101805.84;10082733;29;20049;-74
2022/06/18 18:21:50;;;;;;;10.68;1.83;;;;;;;21.36;nan;101786.34;10076194;29;20167;-73
2022/06/18 18:26:59;;;;;;;10.85;1.67;;;;;;;20.98;nan;101634.13;10105285;29;20053;-72
2022/06/18 18:32:05;;;;;;;11.73;2.30;;;;;;;20.47;nan;101426.34;10079565;29;20061;-73
2022/06/18 18:37:07;;;;;;;8.95;1.83;;;;;;;20.20;nan;101318.59;10073293;29;20049;-75
2022/06/18 18:42:13;;;;;;;17.52;2.30;;;;;;;19.96;nan;101225.88;10047309;29;20049;-76
2022/06/18 18:47:18;;;;;;;16.77;2.67;;;;;;;19.77;nan;101150.88;10077628;29;20231;-75
2022/06/18 18:52:20;;;;;;;15.10;2.80;;;;;;;19.36;nan;100985.03;10078571;29;20056;-74
2022/06/18 18:57:22;;;;;;;16.25;2.40;;;;;;;19.07;nan;100884.66;10085874;29;20120;-76
2022/06/18 19:02:24;;;;;;;15.88;2.47;;;;;;;18.87;nan;100811.59;10078465;29;20049;-75
2022/06/18 19:07:25;;;;;;;15.30;2.85;;;;;;;18.66;nan;100706.69;10080467;29;20079;-76
2022/06/18 19:17:47;;;;;;;17.88;2.95;;;;;;;18.04;nan;100473.69;10067854;29;20065;-74
2022/06/18 19:22:50;;;;;;;15.85;2.50;;;;;;;17.92;nan;100428.88;10070279;29;20528;-75
2022/06/18 19:27:51;;;;;;;19.58;2.90;;;;;;;17.66;nan;100329.59;10087519;29;20413;-75
2022/06/18 19:32:54;;;;;;;15.07;2.78;;;;;;;17.41;nan;100225.97;10078987;29;20540;-75
2022/06/18 19:37:56;;;;;;;16.63;2.60;;;;;;;17.22;nan;100151.38;10079771;29;20063;-74
2022/06/18 19:42:58;;;;;;;12.77;2.45;;;;;;;17.10;nan;100118.16;10072790;29;20049;-73
2022/06/18 19:48:00;;;;;;;13.10;2.53;;;;;;;17.00;nan;100077.78;10078228;29;20056;-74
2022/06/18 19:53:02;;;;;;;19.35;2.30;;;;;;;17.03;nan;100096.22;10079363;29;20510;-72
2022/06/18 19:58:04;;;;;;;13.02;2.20;;;;;;;16.97;nan;100080.47;10081844;29;20540;-73
2022/06/18 20:03:07;;;;;;;12.07;2.20;;;;;;;16.82;nan;100022.59;10076564;29;20056;-73
2022/06/18 20:08:09;;;;;;;15.07;2.22;;;;;;;16.63;nan;99948.97;10086505;29;20064;-73
2022/06/18 20:13:11;;;;;;;16.90;2.70;;;;;;;;;;10084838;29;20469;-73
2022/06/18 20:18:12;;;;;;;14.80;2.38;;;;;;;;;;10086347;29;20066;-72
2022/06/18 20:23:14;;;;;;;15.48;2.83;;;;;;;;;;10076430;29;20045;-74
2022/06/18 20:28:15;;;;;;;17.48;2.63;;;;;;;;;;10098342;29;20049;-73
2022/06/18 20:33:17;;;;;;;16.33;2.60;;;;;;;16.41;nan;99886.00;10079877;29;20057;-73
2022/06/18 20:38:20;;;;;;;16.13;2.70;;;;;;;16.38;nan;99877.28;10085493;29;20076;-72
2022/06/18 20:43:31;;;;;;;18.63;2.75;;;;;;;16.29;nan;99843.13;10084832;29;20136;-70
2022/06/18 20:48:34;;;;;;;15.52;2.60;;;;;;;16.17;nan;99796.69;10077806;29;20056;-71
2022/06/18 20:53:36;;;;;;;13.15;2.42;;;;;;;16.13;nan;99784.50;10074134;29;20048;-70
2022/06/18 20:58:38;;;;;;;13.43;2.35;;;;;;;16.13;nan;99792.41;10089404;29;20049;-71
2022/06/18 21:03:40;;;;;;;16.42;2.50;;;;;;;16.06;nan;99778.47;10082370;29;20037;-72
2022/06/18 21:08:42;;;;;;;23.95;2.85;;;;;;;16.00;nan;99750.44;10081271;29;20128;-71
2022/06/18 21:13:43;;;;;;;17.92;2.78;;;;;;;15.93;nan;99725.06;10082334;29;20096;-72
2022/06/18 21:18:45;;;;;;;17.42;2.65;;;;;;;15.99;nan;99761.00;10072504;29;20076;-71
2022/06/18 21:23:47;;;;;;;16.65;3.25;;;;;;;15.97;nan;99750.47;10076702;29;20041;-70
2022/06/18 21:28:49;;;;;;;20.42;3.28;;;;;;;15.83;nan;99697.13;10076397;29;20076;-71
2022/06/18 21:39:11;;;;;;;17.77;2.90;;;;;;;15.43;nan;99555.50;10082234;29;20073;-69
2022/06/18 21:44:17;;;;;;;20.17;2.47;;;;;;;15.41;nan;99555.53;10077435;29;20041;-71
2022/06/18 21:49:19;;;;;;;13.55;2.75;;;;;;;15.36;nan;99538.94;10075692;29;20085;-70
2022/06/18 21:54:23;;;;;;;19.98;2.45;;;;;;;15.26;nan;99511.91;10079167;29;20061;-71
2022/06/18 21:59:25;;;;;;;16.27;3.38;;;;;;;15.29;nan;99519.75;10088640;29;20052;-71
2022/06/18 22:04:27;;;;;;;12.82;2.00;;;;;;;15.25;nan;99504.88;10077486;29;20516;-70
2022/06/18 22:09:29;;;;;;;15.35;2.50;;;;;;;15.20;nan;99488.31;10083427;29;20049;-71
2022/06/18 22:19:53;;;;;;;16.25;2.13;;;;;;;15.13;nan;99473.53;10077152;29;20069;-70
2022/06/18 22:24:54;;;;;;;15.70;2.63;;;;;;;15.13;nan;99478.78;10088855;29;20067;-70
2022/06/18 22:29:57;;;;;;;14.63;2.45;;;;;;;15.05;nan;99452.59;10085287;29;20052;-71
2022/06/18 22:34:58;;;;;;;20.95;2.95;;;;;;;14.88;nan;99386.22;10084406;29;20053;-72
2022/06/18 22:40:01;;;;;;;13.15;2.53;;;;;;;14.85;nan;99380.13;10086863;29;20048;-71
2022/06/18 22:45:03;;;;;;;15.63;2.13;;;;;;;14.85;nan;99384.56;10079147;29;20063;-71
2022/06/18 22:50:09;;;;;;;21.13;2.55;;;;;;;14.83;nan;99375.78;10082600;29;20077;-71
2022/06/18 22:55:20;;;;;;;14.82;2.33;;;;;;;14.79;nan;99367.09;10066275;29;20048;-72
2022/06/18 23:00:22;;;;;;;14.80;3.20;;;;;;;14.82;nan;99384.63;10077732;29;20073;-71
2022/06/18 23:05:23;;;;;;;19.35;3.45;;;;;;;14.88;nan;99409.94;10073398;29;20052;-71
2022/06/18 23:10:25;;;;;;;14.23;2.10;;;;;;;14.92;nan;99444.13;10079869;29;20059;-71
2022/06/18 23:15:27;;;;;;;19.20;2.08;;;;;;;14.85;nan;99413.53;10073774;29;20441;-70
2022/06/18 23:20:28;;;;;;;22.88;2.95;;;;;;;14.77;nan;99381.19;10067534;29;20390;-71
2022/06/18 23:25:30;;;;;;;20.00;3.00;;;;;;;14.75;nan;99378.59;10089468;29;20521;-71
2022/06/18 23:30:34;;;;;;;14.85;2.65;;;;;;;14.67;nan;99352.44;10073204;29;20606;-71
2022/06/18 23:35:43;;;;;;;14.73;2.70;;;;;;;14.71;nan;99370.81;10074580;29;20056;-71
2022/06/18 23:40:46;;;;;;;19.23;2.27;;;;;;;14.61;nan;99336.78;10067752;29;20050;-71
2022/06/18 23:45:50;;;;;;;19.55;3.20;;;;;;;14.57;nan;99321.91;10079595;29;20454;-73
2022/06/18 23:50:51;;;;;;;22.65;3.55;;;;;;;14.54;nan;99316.69;10066373;29;20605;-71
2022/06/18 23:55:56;;;;;;;19.67;3.08;;;;;;;14.47;nan;99289.66;10083644;29;20108;-71
